Time;durP1;ratioP1;P1;durP2;ratioP2;P2;SDS_P1;SDS_P2;PMS_P1;PMS_P2;Temp;Humidity;BMP_temperature;BMP_pressure;BME280_temperature;BME280_humidity;BME280_pressure;Samples;Min_cycle;Max_cycle;Signal;HPM_P1;HPM_P2
2023/11/12 00:00:42;;;;;;;4.63;3.27;;;;;;;7.18;100.00;98869.05;1431139;90;22117;-85
2023/11/12 00:03:09;;;;;;;3.27;2.53;;;;;;;7.16;100.00;98876.30;1432741;90;21451;-86
2023/11/12 00:05:36;;;;;;;4.20;2.53;;;;;;;7.12;100.00;98879.41;1440918;91;21455;-85
2023/11/12 00:08:03;;;;;;;6.40;3.20;;;;;;;7.10;100.00;98878.24;1435895;91;21399;-85
2023/11/12 00:10:31;;;;;;;5.10;2.90;;;;;;;7.10;100.00;98882.19;1438374;91;21348;-85
2023/11/12 00:12:57;;;;;;;8.40;4.30;;;;;;;7.07;100.00;98882.52;1426749;91;22477;-88
2023/11/12 00:15:27;;;;;;;5.10;3.43;;;;;;;7.05;100.00;98891.08;1441109;91;21435;-85
2023/11/12 00:17:53;;;;;;;3.63;2.30;;;;;;;7.04;100.00;98883.34;1436382;90;22221;-86
2023/11/12 00:20:19;;;;;;;3.63;2.70;;;;;;;7.03;100.00;98891.73;1436702;90;21392;-86
2023/11/12 00:22:46;;;;;;;5.40;2.30;;;;;;;7.04;100.00;98894.68;1432722;91;21436;-84
2023/11/12 00:25:12;;;;;;;4.87;2.57;;;;;;;7.02;100.00;98895.36;1434467;90;22353;-82
2023/11/12 00:27:42;;;;;;;3.77;2.60;;;;;;;7.01;100.00;98900.27;1441931;90;21525;-85
2023/11/12 00:30:10;;;;;;;3.30;2.80;;;;;;;7.02;100.00;98905.88;1434651;90;21768;-85
2023/11/12 00:32:36;;;;;;;3.57;2.60;;;;;;;7.00;100.00;98911.28;1436859;91;21384;-84
2023/11/12 00:35:03;;;;;;;3.90;2.17;;;;;;;6.98;100.00;98907.17;1427057;91;21496;-85
2023/11/12 00:37:29;;;;;;;3.00;2.30;;;;;;;6.96;100.00;98914.39;1426822;90;21451;-85
2023/11/12 00:39:55;;;;;;;6.97;2.30;;;;;;;6.93;100.00;98917.34;1438002;91;21635;-83
2023/11/12 00:42:21;;;;;;;3.37;2.20;;;;;;;6.95;100.00;98920.64;1429719;90;21399;-85
2023/11/12 00:44:47;;;;;;;2.67;2.17;;;;;;;6.93;100.00;98922.60;1431292;90;21450;-85
2023/11/12 00:47:14;;;;;;;4.90;2.30;;;;;;;6.92;100.00;98925.73;1431495;91;21436;-85
2023/11/12 00:49:40;;;;;;;3.33;3.03;;;;;;;6.89;100.00;98940.52;1429184;90;21445;-83
2023/11/12 00:52:06;;;;;;;6.80;2.63;;;;;;;6.90;100.00;98940.02;1433532;90;21407;-85
2023/11/12 00:54:32;;;;;;;3.73;2.20;;;;;;;6.89;100.00;98945.78;1429327;91;21444;-85
2023/11/12 00:56:58;;;;;;;4.70;2.63;;;;;;;6.87;100.00;98944.29;1430981;91;22471;-86
2023/11/12 00:59:25;;;;;;;3.60;2.30;;;;;;;6.87;100.00;98938.53;1429557;91;21421;-84
2023/11/12 01:01:51;;;;;;;3.27;2.00;;;;;;;6.89;100.00;98952.85;1432767;91;21658;-86
2023/11/12 01:04:17;;;;;;;2.97;2.20;;;;;;;6.87;100.00;98952.18;1437601;91;21342;-86
2023/11/12 01:06:43;;;;;;;2.53;2.23;;;;;;;6.86;100.00;98959.25;1434106;91;22463;-85
2023/11/12 01:09:09;;;;;;;3.57;2.73;;;;;;;6.87;100.00;98963.52;1434479;91;21444;-86
2023/11/12 01:11:38;;;;;;;2.50;2.13;;;;;;;6.85;100.00;98962.03;1437974;90;21393;-86
2023/11/12 01:14:04;;;;;;;3.83;2.13;;;;;;;6.84;100.00;98966.47;1438959;91;21369;-88
2023/11/12 01:16:31;;;;;;;2.60;2.13;;;;;;;6.83;100.00;98964.02;1434807;91;21348;-86
2023/11/12 01:19:00;;;;;;;3.53;2.60;;;;;;;6.79;100.00;98967.46;1439348;91;21288;-88
2023/11/12 01:21:27;;;;;;;2.47;2.20;;;;;;;6.78;100.00;98965.80;1438773;91;21532;-88
2023/11/12 01:23:54;;;;;;;4.37;2.00;;;;;;;6.75;100.00;98973.50;1428949;90;21363;-84
2023/11/12 01:26:21;;;;;;;4.73;2.60;;;;;;;6.75;100.00;98972.19;1432140;91;21583;-89
2023/11/12 01:28:47;;;;;;;2.53;1.93;;;;;;;6.71;100.00;98969.56;1438891;91;21421;-86
2023/11/12 01:31:13;;;;;;;3.00;2.30;;;;;;;6.68;100.00;98970.38;1442032;91;21533;-86
2023/11/12 01:33:40;;;;;;;4.27;1.70;;;;;;;6.68;100.00;98974.31;1415989;91;22977;-85
2023/11/12 01:36:07;;;;;;;5.30;1.60;;;;;;;6.68;100.00;98979.58;1436557;91;21369;-85
2023/11/12 01:38:33;;;;;;;5.87;2.13;;;;;;;6.69;100.00;98986.47;1435402;91;21452;-85
2023/11/12 01:41:03;;;;;;;4.73;1.90;;;;;;;6.68;100.00;98983.52;1431700;90;21459;-85
2023/11/12 01:43:27;;;;;;;2.47;1.90;;;;;;;6.68;100.00;98989.59;1420914;91;22375;-84
2023/11/12 01:45:54;;;;;;;1.77;1.43;;;;;;;6.68;100.00;98990.91;1434786;91;21370;-89
2023/11/12 01:48:20;;;;;;;2.37;1.40;;;;;;;6.69;100.00;98994.36;1428424;91;22249;-90
2023/11/12 01:50:47;;;;;;;2.00;1.70;;;;;;;6.70;100.00;98991.58;1418294;91;22279;-88
2023/11/12 01:53:16;;;;;;;3.00;2.30;;;;;;;6.70;100.00;98999.47;1431524;91;21362;-90
2023/11/12 01:55:45;;;;;;;1.53;1.40;;;;;;;6.72;100.00;99000.12;1430505;90;22545;-88
2023/11/12 01:58:13;;;;;;;3.67;2.33;;;;;;;6.72;100.00;99005.38;1432775;90;21606;-89
2023/11/12 02:00:40;;;;;;;3.77;2.37;;;;;;;6.75;100.00;99012.13;1436437;91;21347;-86
2023/11/12 02:03:14;;;;;;;2.00;1.80;;;;;;;6.75;100.00;99016.89;1437771;90;21362;-84
2023/11/12 02:05:41;;;;;;;4.47;1.83;;;;;;;6.75;100.00;99018.20;1444058;90;22241;-86
2023/11/12 02:08:08;;;;;;;2.97;2.07;;;;;;;6.72;100.00;99013.27;1443680;91;21392;-83
2023/11/12 02:10:36;;;;;;;2.20;1.70;;;;;;;6.72;100.00;99014.58;1436746;90;21392;-84
2023/11/12 02:13:06;;;;;;;3.53;1.40;;;;;;;6.73;100.00;99014.93;1437812;90;21470;-82
2023/11/12 02:15:32;;;;;;;8.27;1.70;;;;;;;6.73;100.00;99022.82;1430118;91;21421;-85
2023/11/12 02:17:58;;;;;;;2.60;1.80;;;;;;;6.72;100.00;99023.78;1446650;90;22507;-83
2023/11/12 02:20:27;;;;;;;1.30;1.17;;;;;;;6.70;100.00;99020.50;1435117;91;21495;-83
2023/11/12 02:22:54;;;;;;;2.47;1.20;;;;;;;6.65;100.00;99021.46;1439252;91;21435;-84
2023/11/12 02:25:21;;;;;;;1.60;1.37;;;;;;;6.67;100.00;99026.05;1431149;90;21413;-86
2023/11/12 02:27:48;;;;;;;1.40;1.10;;;;;;;6.65;100.00;99022.77;1438337;90;21332;-88
2023/11/12 02:30:15;;;;;;;2.30;1.23;;;;;;;6.63;100.00;99028.67;1437654;91;21554;-87
2023/11/12 02:32:42;;;;;;;1.60;1.30;;;;;;;6.63;100.00;99030.48;1412802;91;21407;-88
2023/11/12 02:35:08;;;;;;;1.47;1.20;;;;;;;6.64;100.00;99028.17;1436933;91;22330;-89
2023/11/12 02:37:35;;;;;;;1.00;0.90;;;;;;;6.63;100.00;99037.05;1435933;91;22242;-87
2023/11/12 02:40:02;;;;;;;1.10;0.93;;;;;;;6.61;100.00;99033.75;1435540;91;21874;-83
2023/11/12 02:42:29;;;;;;;1.03;0.90;;;;;;;6.60;100.00;99040.81;1430980;90;21624;-80
2023/11/12 02:44:58;;;;;;;4.70;1.77;;;;;;;6.60;100.00;99050.02;1434238;91;21377;-83
2023/11/12 02:47:24;;;;;;;2.60;1.33;;;;;;;6.58;100.00;99056.41;1429944;90;21392;-84
2023/11/12 02:50:32;;;;;;;1.17;0.83;;;;;;;6.57;100.00;99058.22;1436185;91;21583;-84
2023/11/12 02:53:00;;;;;;;1.53;1.10;;;;;;;6.55;100.00;99054.91;1439821;91;21339;-84
2023/11/12 02:55:32;;;;;;;2.40;1.07;;;;;;;6.51;100.00;99058.84;1431261;90;21415;-84
2023/11/12 02:57:59;;;;;;;1.00;0.90;;;;;;;6.51;100.00;99070.17;1437515;91;21473;-84
2023/11/12 03:00:29;;;;;;;1.23;1.13;;;;;;;6.52;100.00;99072.30;1435913;91;21414;-83
2023/11/12 03:03:00;;;;;;;2.00;1.10;;;;;;;6.53;100.00;99077.89;1435228;91;21444;-83
2023/11/12 03:05:27;;;;;;;2.58;1.15;;;;;;;6.54;100.00;99075.61;1431915;90;21761;-84
2023/11/12 03:07:54;;;;;;;2.80;1.73;;;;;;;6.54;100.00;99081.69;1431378;90;21533;-83
2023/11/12 03:10:21;;;;;;;2.40;0.80;;;;;;;6.55;100.00;99083.82;1437642;90;21340;-84
2023/11/12 03:12:48;;;;;;;1.30;1.00;;;;;;;6.49;100.00;99086.58;1438306;90;22851;-82
2023/11/12 03:15:14;;;;;;;1.30;1.20;;;;;;;6.50;100.00;99094.82;1434694;91;21927;-82
2023/11/12 03:17:40;;;;;;;2.33;1.10;;;;;;;6.48;100.00;99098.58;1428404;91;21470;-77
2023/11/12 03:20:09;;;;;;;1.47;0.90;;;;;;;6.46;100.00;99095.27;1431902;90;22235;-82
2023/11/12 03:22:36;;;;;;;1.53;1.33;;;;;;;6.47;100.00;99101.70;1438217;91;21473;-83
2023/11/12 03:25:05;;;;;;;2.87;0.97;;;;;;;6.46;100.00;99099.21;1430091;91;21697;-83
2023/11/12 03:27:35;;;;;;;1.43;1.00;;;;;;;6.47;100.00;99106.11;1437758;91;21437;-83
2023/11/12 03:30:00;;;;;;;3.60;1.07;;;;;;;6.48;100.00;99103.84;1432639;89;21523;-83
2023/11/12 03:32:26;;;;;;;1.77;1.00;;;;;;;6.50;100.00;99109.74;1434621;91;21421;-83
2023/11/12 03:34:53;;;;;;;1.30;0.93;;;;;;;6.50;100.00;99113.22;1438974;91;22442;-84
2023/11/12 03:37:20;;;;;;;0.70;0.70;;;;;;;6.50;100.00;99118.94;1435264;91;21958;-83
2023/11/12 03:39:50;;;;;;;1.57;0.97;;;;;;;6.51;100.00;99120.61;1433097;90;22311;-83
2023/11/12 03:42:17;;;;;;;1.63;0.80;;;;;;;6.52;100.00;99118.30;1439113;89;21607;-87
2023/11/12 03:44:44;;;;;;;2.87;0.70;;;;;;;6.54;100.00;99126.38;1434421;90;21406;-86
2023/11/12 03:47:11;;;;;;;1.47;0.97;;;;;;;6.54;100.00;99132.13;1435646;91;21399;-85
2023/11/12 03:49:43;;;;;;;1.03;0.80;;;;;;;6.54;100.00;99130.81;1434155;90;21562;-87
2023/11/12 03:52:07;;;;;;;1.60;1.40;;;;;;;6.52;100.00;99144.59;1438098;91;21488;-84
2023/11/12 03:54:36;;;;;;;0.87;0.80;;;;;;;6.51;100.00;99146.40;1438440;90;21325;-84
2023/11/12 03:57:04;;;;;;;4.63;1.40;;;;;;;6.52;100.00;99149.84;1431247;91;21473;-85
2023/11/12 03:59:30;;;;;;;0.83;0.77;;;;;;;6.54;100.00;99147.41;1437564;91;21482;-86
2023/11/12 04:01:56;;;;;;;1.80;0.80;;;;;;;6.53;100.00;99152.80;1434152;91;21465;-85
2023/11/12 04:04:22;;;;;;;0.80;0.80;;;;;;;6.52;100.00;99157.24;1431148;91;21392;-86
2023/11/12 04:06:49;;;;;;;2.23;1.00;;;;;;;6.51;100.00;99156.09;1435470;91;22508;-85
2023/11/12 04:09:15;;;;;;;1.80;1.00;;;;;;;6.49;100.00;99158.04;1414201;91;21340;-88
2023/11/12 04:11:41;;;;;;;1.20;0.70;;;;;;;6.48;100.00;99161.16;1428112;91;21377;-86
2023/11/12 04:14:08;;;;;;;1.53;0.80;;;;;;;6.46;100.00;99166.23;1412260;91;22420;-89
2023/11/12 04:16:36;;;;;;;0.83;0.83;;;;;;;6.43;100.00;99162.59;1439846;91;21429;-86
2023/11/12 04:19:03;;;;;;;0.97;0.80;;;;;;;6.40;100.00;99170.78;1435579;91;21354;-87
2023/11/12 04:21:31;;;;;;;0.83;0.73;;;;;;;6.37;100.00;99173.22;1432498;91;21465;-87
2023/11/12 04:23:58;;;;;;;1.10;0.80;;;;;;;6.37;100.00;99175.03;1437589;90;21979;-88
2023/11/12 04:26:24;;;;;;;0.70;0.60;;;;;;;6.33;100.00;99186.34;1433743;90;21600;-90
2023/11/12 04:28:50;;;;;;;1.20;0.90;;;;;;;6.31;100.00;99186.48;1431438;91;21392;-85
2023/11/12 04:31:17;;;;;;;1.80;0.83;;;;;;;6.29;100.00;99192.36;1437464;91;22325;-86
2023/11/12 04:33:45;;;;;;;3.17;0.70;;;;;;;6.27;100.00;99185.14;1431682;90;21421;-88
2023/11/12 04:36:12;;;;;;;0.83;0.70;;;;;;;6.27;100.00;99196.97;1432878;89;21333;-88
2023/11/12 04:38:39;;;;;;;0.67;0.67;;;;;;;6.26;100.00;99200.55;1417353;91;21399;-88
2023/11/12 04:41:05;;;;;;;1.23;0.90;;;;;;;6.24;100.00;99195.95;1434519;90;22054;-88
2023/11/12 04:43:31;;;;;;;4.50;0.90;;;;;;;6.22;100.00;99200.52;1434585;90;22369;-86
2023/11/12 04:45:57;;;;;;;1.00;0.70;;;;;;;6.21;100.00;99204.10;1430096;90;21460;-86
2023/11/12 04:48:24;;;;;;;3.47;0.73;;;;;;;6.19;100.00;99208.70;1433147;91;22279;-87
2023/11/12 04:50:50;;;;;;;2.63;1.00;;;;;;;6.22;100.00;99211.52;1438180;91;21391;-89
2023/11/12 04:53:16;;;;;;;1.27;0.80;;;;;;;6.21;100.00;99213.80;1428645;90;21540;-90
2023/11/12 04:55:43;;;;;;;0.60;0.50;;;;;;;6.21;100.00;99217.23;1434883;91;22302;-90
2023/11/12 04:58:10;;;;;;;2.00;0.70;;;;;;;6.20;100.00;99218.23;1434182;90;21370;-89
2023/11/12 05:00:40;;;;;;;1.33;1.17;;;;;;;6.21;100.00;99222.50;1428604;91;21377;-90
2023/11/12 05:03:07;;;;;;;0.50;0.50;;;;;;;6.20;100.00;99226.60;1413219;91;21485;-89
2023/11/12 05:05:33;;;;;;;0.80;0.53;;;;;;;6.17;100.00;99235.60;1432317;91;21325;-89
2023/11/12 05:07:59;;;;;;;1.07;0.57;;;;;;;6.14;100.00;99228.52;1432069;90;21459;-88
2023/11/12 05:10:26;;;;;;;1.03;0.60;;;;;;;6.13;100.00;99238.20;1421446;91;21406;-88
2023/11/12 05:12:53;;;;;;;0.60;0.60;;;;;;;6.14;100.00;99247.72;1436042;91;21399;-90
2023/11/12 05:15:19;;;;;;;0.97;0.80;;;;;;;6.15;100.00;99244.11;1412918;91;21558;-88
2023/11/12 05:17:45;;;;;;;1.33;1.17;;;;;;;6.15;100.00;99250.67;1439765;91;21385;-90
2023/11/12 05:20:12;;;;;;;0.80;0.60;;;;;;;6.15;100.00;99255.11;1440520;90;22646;-89
2023/11/12 05:22:38;;;;;;;0.80;0.50;;;;;;;6.15;100.00;99265.62;1430154;91;22589;-86
2023/11/12 05:25:05;;;;;;;1.07;0.70;;;;;;;6.12;100.00;99265.42;1434342;91;21370;-89
2023/11/12 05:27:34;;;;;;;0.63;0.63;;;;;;;6.14;100.00;99266.11;1430894;91;22523;-89
2023/11/12 05:30:00;;;;;;;0.73;0.73;;;;;;;6.13;100.00;99271.03;1431329;90;21421;-86
2023/11/12 05:32:26;;;;;;;0.50;0.50;;;;;;;6.09;100.00;99273.60;1430776;91;22273;-85
2023/11/12 05:34:53;;;;;;;0.50;0.50;;;;;;;6.09;100.00;99277.05;1431303;91;21421;-89
2023/11/12 05:37:19;;;;;;;2.17;0.70;;;;;;;6.08;100.00;99277.21;1434926;90;22323;-84
2023/11/12 05:39:45;;;;;;;2.23;1.10;;;;;;;6.09;100.00;99284.93;1436779;90;21458;-83
2023/11/12 05:42:11;;;;;;;1.50;1.30;;;;;;;6.08;100.00;99290.34;1429100;91;21435;-84
2023/11/12 05:44:37;;;;;;;1.37;0.97;;;;;;;6.03;100.00;99297.83;1434570;91;21550;-83
2023/11/12 05:47:04;;;;;;;1.37;1.00;;;;;;;6.02;100.00;99306.70;1415533;91;21345;-86
2023/11/12 05:49:30;;;;;;;1.37;1.00;;;;;;;6.01;100.00;99306.33;1427843;90;21532;-84
2023/11/12 05:51:57;;;;;;;1.40;1.17;;;;;;;6.01;100.00;99308.96;1428706;90;21407;-88
2023/11/12 05:54:23;;;;;;;3.33;0.90;;;;;;;5.97;100.00;99317.63;1436953;91;22264;-90
2023/11/12 05:56:50;;;;;;;0.80;0.80;;;;;;;5.97;100.00;99324.68;1438368;91;21561;-87
2023/11/12 05:59:16;;;;;;;2.67;1.43;;;;;;;5.96;100.00;99328.30;1438246;91;21370;-89
2023/11/12 06:01:42;;;;;;;1.07;0.83;;;;;;;5.96;100.00;99334.37;1432339;91;21509;-90
2023/11/12 06:04:08;;;;;;;3.07;0.80;;;;;;;5.94;100.00;99340.73;1437307;90;21569;-86
2023/11/12 06:06:34;;;;;;;1.23;1.13;;;;;;;5.94;100.00;99351.23;1440815;91;21340;-85
2023/11/12 06:09:01;;;;;;;2.20;1.57;;;;;;;5.94;100.00;99353.86;1428944;91;21436;-84
2023/11/12 06:11:27;;;;;;;2.57;1.23;;;;;;;5.91;100.00;99356.25;1443820;90;22316;-82
2023/11/12 06:13:54;;;;;;;1.17;0.60;;;;;;;5.89;100.00;99360.33;1422685;91;21355;-81
2023/11/12 06:16:20;;;;;;;1.03;0.70;;;;;;;5.84;100.00;99366.98;1441059;91;22249;-82
2023/11/12 06:18:46;;;;;;;1.50;0.97;;;;;;;5.84;100.00;99373.54;1431413;91;22031;-83
2023/11/12 06:21:13;;;;;;;1.70;1.03;;;;;;;5.86;100.00;99375.05;1428263;91;21422;-81
2023/11/12 06:23:43;;;;;;;1.37;1.00;;;;;;;5.87;100.00;99375.91;1431084;91;21978;-82
2023/11/12 06:26:08;;;;;;;1.67;1.00;;;;;;;5.85;100.00;99383.09;1435306;91;21487;-82
2023/11/12 06:28:34;;;;;;;0.80;0.70;;;;;;;5.84;100.00;99394.09;1431190;91;21457;-82
2023/11/12 06:31:00;;;;;;;1.77;1.07;;;;;;;5.86;100.00;99396.06;1438605;91;21452;-81
2023/11/12 06:33:26;;;;;;;0.93;0.80;;;;;;;5.82;100.00;99403.08;1431950;91;21495;-82
2023/11/12 06:35:53;;;;;;;1.43;0.83;;;;;;;5.84;100.00;99409.84;1435245;91;21525;-87
2023/11/12 06:38:19;;;;;;;2.90;0.90;;;;;;;5.86;100.00;99409.69;1422129;91;21481;-87
2023/11/12 06:40:45;;;;;;;1.07;0.90;;;;;;;5.87;100.00;99413.50;1439654;90;21421;-86
2023/11/12 06:43:12;;;;;;;1.53;1.20;;;;;;;5.91;100.00;99420.59;1429895;91;22360;-85
2023/11/12 06:45:38;;;;;;;2.23;0.77;;;;;;;5.94;100.00;99418.20;1433550;91;22286;-84
2023/11/12 06:48:05;;;;;;;0.90;0.67;;;;;;;5.95;100.00;99419.36;1436566;91;21385;-82
2023/11/12 06:50:31;;;;;;;1.97;1.20;;;;;;;6.00;100.00;99422.89;1428114;91;21467;-84
2023/11/12 06:52:57;;;;;;;1.20;0.80;;;;;;;6.04;100.00;99422.93;1437564;91;21406;-83
2023/11/12 06:55:25;;;;;;;1.53;1.00;;;;;;;6.08;100.00;99421.69;1437808;90;22860;-84
2023/11/12 06:57:51;;;;;;;1.13;0.70;;;;;;;6.08;100.00;99429.57;1431397;91;21414;-84
2023/11/12 07:00:18;;;;;;;1.03;0.80;;;;;;;6.08;100.00;99432.20;1431590;91;21893;-83
2023/11/12 07:02:44;;;;;;;1.20;0.70;;;;;;;6.11;100.00;99433.22;1429314;91;21495;-83
2023/11/12 07:05:10;;;;;;;0.90;0.90;;;;;;;6.13;100.00;99435.69;1434282;90;21532;-84
2023/11/12 07:07:38;;;;;;;1.43;0.97;;;;;;;6.13;100.00;99439.17;1439255;90;21429;-84
2023/11/12 07:10:05;;;;;;;2.57;1.00;;;;;;;6.18;100.00;99446.11;1436393;91;21407;-83
2023/11/12 07:12:32;;;;;;;2.27;0.90;;;;;;;6.22;100.00;99447.50;1439316;90;21400;-84
2023/11/12 07:14:58;;;;;;;1.63;1.20;;;;;;;6.26;100.00;99451.48;1433140;91;22408;-82
2023/11/12 07:17:25;;;;;;;1.67;1.33;;;;;;;6.27;100.00;99451.84;1428202;91;21421;-82
2023/11/12 07:19:53;;;;;;;2.33;1.20;;;;;;;6.32;100.00;99457.97;1437390;91;22287;-80
2023/11/12 07:22:19;;;;;;;1.20;1.10;;;;;;;6.35;100.00;99458.17;1435221;90;21443;-82
2023/11/12 07:24:45;;;;;;;2.60;1.33;;;;;;;6.33;100.00;99455.21;1426833;91;22413;-81
2023/11/12 07:27:11;;;;;;;2.40;1.57;;;;;;;6.36;100.00;99461.13;1430353;91;21296;-81
2023/11/12 07:29:37;;;;;;;2.17;1.50;;;;;;;6.38;100.00;99460.02;1435153;91;21482;-84
2023/11/12 07:32:04;;;;;;;1.97;1.77;;;;;;;6.44;100.00;99469.13;1429140;91;21532;-81
2023/11/12 07:34:30;;;;;;;2.60;1.53;;;;;;;6.43;100.00;99468.80;1430890;90;21466;-83
2023/11/12 07:36:56;;;;;;;2.10;1.63;;;;;;;6.46;100.00;99468.50;1437846;91;21334;-83
2023/11/12 07:39:22;;;;;;;2.37;1.50;;;;;;;6.48;100.00;99474.45;1431831;90;22361;-84
2023/11/12 07:41:49;;;;;;;8.20;1.93;;;;;;;6.52;100.00;99478.44;1425434;91;21443;-85
2023/11/12 07:44:15;;;;;;;1.80;1.43;;;;;;;6.55;100.00;99476.83;1426339;91;21463;-84
2023/11/12 07:46:42;;;;;;;2.10;1.20;;;;;;;6.57;100.00;99472.27;1440120;91;21391;-81
2023/11/12 07:49:08;;;;;;;2.47;1.10;;;;;;;6.59;100.00;99472.95;1441181;90;21429;-80
2023/11/12 07:51:34;;;;;;;1.97;1.57;;;;;;;6.64;100.00;99477.27;1416522;91;21377;-80
2023/11/12 07:54:01;;;;;;;1.50;1.30;;;;;;;6.69;100.00;99486.88;1432321;91;21355;-80
2023/11/12 07:56:27;;;;;;;2.47;1.50;;;;;;;6.75;100.00;99486.28;1439371;91;22436;-80
2023/11/12 07:58:54;;;;;;;3.17;1.40;;;;;;;6.82;100.00;99484.38;1430198;91;21401;-79
2023/11/12 08:01:20;;;;;;;3.07;1.80;;;;;;;6.86;100.00;99483.13;1441369;91;21370;-79
2023/11/12 08:03:46;;;;;;;1.77;1.27;;;;;;;6.90;100.00;99493.69;1417276;91;21407;-81
2023/11/12 08:06:13;;;;;;;1.90;1.30;;;;;;;7.02;100.00;99491.22;1438503;91;21356;-79
2023/11/12 08:08:39;;;;;;;2.20;1.30;;;;;;;7.06;100.00;99495.69;1431227;90;21562;-80
2023/11/12 08:11:06;;;;;;;2.50;1.73;;;;;;;7.19;100.00;99504.89;1433237;91;21444;-79
2023/11/12 08:13:32;;;;;;;1.83;1.47;;;;;;;7.27;100.00;99504.63;1431726;91;21659;-79
2023/11/12 08:15:58;;;;;;;5.90;1.70;;;;;;;7.36;100.00;99503.23;1430220;91;21340;-80
2023/11/12 08:18:25;;;;;;;3.73;2.33;;;;;;;7.50;100.00;99501.88;1431156;91;21656;-82
2023/11/12 08:20:54;;;;;;;5.97;2.13;;;;;;;7.62;100.00;99505.97;1433021;90;21378;-82
2023/11/12 08:23:21;;;;;;;1.70;1.60;;;;;;;7.67;100.00;99503.69;1433077;90;21538;-81
2023/11/12 08:25:47;;;;;;;4.20;1.70;;;;;;;7.72;100.00;99508.51;1432962;90;21591;-82
2023/11/12 08:28:15;;;;;;;4.03;2.67;;;;;;;7.77;100.00;99514.63;1435100;91;21451;-83
2023/11/12 08:30:41;;;;;;;2.80;2.40;;;;;;;7.81;100.00;99518.13;1432376;90;21468;-82
2023/11/12 08:33:07;;;;;;;3.20;2.57;;;;;;;7.79;100.00;99517.94;1429579;91;21521;-80
2023/11/12 08:35:34;;;;;;;6.20;4.40;;;;;;;7.84;100.00;99519.63;1433746;91;21429;-84
2023/11/12 08:38:00;;;;;;;4.50;2.60;;;;;;;7.90;100.00;99525.61;1431190;91;21528;-83
2023/11/12 08:40:26;;;;;;;3.47;1.80;;;;;;;7.97;100.00;99531.94;1417056;91;21895;-83
2023/11/12 08:42:52;;;;;;;5.50;3.53;;;;;;;7.97;100.00;99534.58;1432096;90;21657;-83
2023/11/12 08:45:19;;;;;;;3.73;3.00;;;;;;;7.93;100.00;99539.80;1429290;91;21450;-83
2023/11/12 08:47:45;;;;;;;5.10;2.00;;;;;;;7.87;100.00;99539.09;1435476;90;22329;-83
2023/11/12 08:50:11;;;;;;;4.17;2.70;;;;;;;7.84;100.00;99545.98;1435645;90;21444;-81
2023/11/12 08:52:38;;;;;;;3.97;2.27;;;;;;;7.82;100.00;99550.07;1417462;91;21398;-81
2023/11/12 08:55:08;;;;;;;3.23;1.83;;;;;;;7.80;100.00;99551.23;1436874;91;22413;-81
2023/11/12 08:57:34;;;;;;;1.98;1.55;;;;;;;7.77;100.00;99548.86;1514346;91;21216;-81
2023/11/12 09:00:02;;;;;;;3.63;1.80;;;;;;;7.76;100.00;99555.94;1362340;91;21408;-83
2023/11/12 09:02:29;;;;;;;3.60;1.83;;;;;;;7.75;100.00;99563.52;1426405;91;21477;-82
2023/11/12 09:04:55;;;;;;;2.03;1.80;;;;;;;7.74;100.00;99571.56;1362071;91;21268;-81
2023/11/12 09:07:21;;;;;;;2.00;1.37;;;;;;;7.86;100.00;99563.79;1352517;92;21303;-83
2023/11/12 09:09:47;;;;;;;1.80;1.50;;;;;;;7.99;100.00;99567.34;1491015;91;22170;-80
2023/11/12 09:12:14;;;;;;;3.50;2.37;;;;;;;8.22;100.00;99570.33;1368567;91;21252;-82
2023/11/12 09:14:40;;;;;;;2.00;1.77;;;;;;;8.53;100.00;99569.43;1514211;91;21341;-79
2023/11/12 09:17:07;;;;;;;3.37;1.63;;;;;;;8.62;100.00;99568.98;1362367;91;21253;-82
2023/11/12 09:19:33;;;;;;;3.97;2.00;;;;;;;8.62;100.00;99575.08;1362200;90;21296;-81
2023/11/12 09:21:59;;;;;;;3.90;2.80;;;;;;;8.61;100.00;99576.08;1362647;91;21480;-82
2023/11/12 09:24:25;;;;;;;2.67;2.10;;;;;;;8.55;100.00;99579.34;1504637;91;21373;-83
2023/11/12 09:26:51;;;;;;;2.80;2.10;;;;;;;8.50;100.00;99580.29;1362529;91;22126;-82
2023/11/12 09:29:17;;;;;;;4.63;2.77;;;;;;;8.50;100.00;99582.92;1486121;91;21385;-82
2023/11/12 09:31:43;;;;;;;2.63;2.00;;;;;;;8.51;100.00;99576.16;1362512;90;21222;-83
2023/11/12 09:34:10;;;;;;;2.50;1.97;;;;;;;8.52;100.00;99585.75;1379864;91;22493;-83
2023/11/12 09:36:36;;;;;;;3.83;2.80;;;;;;;8.50;100.00;99589.52;1415059;91;21839;-81
2023/11/12 09:39:03;;;;;;;9.27;5.10;;;;;;;8.49;100.00;99582.11;1428758;90;21450;-81
2023/11/12 09:41:31;;;;;;;5.43;2.83;;;;;;;8.49;100.00;99584.74;1435316;90;22327;-82
2023/11/12 09:44:03;;;;;;;9.40;5.00;;;;;;;8.51;100.00;99591.16;1432538;91;21385;-80
2023/11/12 09:46:26;;;;;;;6.43;3.53;;;;;;;8.48;100.00;99592.80;1505830;91;21347;-81
2023/11/12 09:48:53;;;;;;;4.93;3.43;;;;;;;8.39;100.00;99591.91;1362520;91;21304;-81
2023/11/12 09:51:21;;;;;;;4.43;3.03;;;;;;;8.33;100.00;99597.27;1351473;92;21444;-81
2023/11/12 09:53:50;;;;;;;3.27;2.60;;;;;;;8.30;100.00;99602.85;1361181;91;21215;-82
2023/11/12 09:56:15;;;;;;;4.57;3.03;;;;;;;8.26;100.00;99599.38;1507099;91;21333;-82
2023/11/12 09:58:47;;;;;;;4.67;2.83;;;;;;;8.21;100.00;99602.95;1514258;91;21208;-82
2023/11/12 10:01:13;;;;;;;4.95;2.87;;;;;;;8.21;100.00;99608.22;1507274;91;21333;-81
2023/11/12 10:03:50;;;;;;;5.57;2.50;;;;;;;8.09;100.00;99603.19;1511920;91;21268;-80
2023/11/12 10:06:20;;;;;;;4.85;3.20;;;;;;;8.06;100.00;99610.08;1345981;92;21350;-81
2023/11/12 10:08:46;;;;;;;6.27;2.67;;;;;;;8.01;100.00;99609.70;1358827;91;22154;-79
2023/11/12 10:11:26;;;;;;;3.80;2.63;;;;;;;7.97;100.00;99617.58;1362219;91;22118;-80
2023/11/12 10:13:52;;;;;;;4.23;2.87;;;;;;;7.92;100.00;99619.83;1514292;91;21201;-81
2023/11/12 10:16:33;;;;;;;2.93;2.37;;;;;;;7.90;100.00;99619.14;1362444;90;22148;-81
2023/11/12 10:19:15;;;;;;;5.15;3.10;;;;;;;7.87;100.00;99610.22;1358327;90;21311;-80
2023/11/12 10:21:56;;;;;;;4.70;2.63;;;;;;;7.81;100.00;99622.19;1364588;91;21488;-80
2023/11/12 10:24:24;;;;;;;5.73;2.90;;;;;;;7.78;100.00;99622.98;1346583;93;21340;-82
2023/11/12 10:26:52;;;;;;;3.67;3.00;;;;;;;7.78;100.00;99621.17;1360417;90;22088;-80
2023/11/12 10:29:23;;;;;;;4.73;2.80;;;;;;;7.79;100.00;99627.26;1370090;91;21318;-80
2023/11/12 10:31:50;;;;;;;8.45;2.92;;;;;;;7.81;100.00;99624.81;1361810;90;21408;-80
2023/11/12 10:34:17;;;;;;;5.77;3.20;;;;;;;7.85;100.00;99622.24;1361595;91;21265;-82
2023/11/12 10:37:10;;;;;;;5.53;3.27;;;;;;;7.90;100.00;99628.36;1361465;91;21275;-82
2023/11/12 10:39:44;;;;;;;5.43;3.33;;;;;;;7.95;100.00;99626.61;1514274;91;21215;-81
2023/11/12 10:42:21;;;;;;;2.97;2.60;;;;;;;7.98;100.00;99631.08;1460412;91;21295;-83
2023/11/12 10:44:49;;;;;;;4.63;3.50;;;;;;;8.01;100.00;99636.05;1358145;90;21281;-81
2023/11/12 10:47:22;;;;;;;5.67;3.63;;;;;;;8.03;100.00;99638.05;1360417;91;21422;-84
2023/11/12 10:49:47;;;;;;;8.18;5.30;;;;;;;8.00;100.00;99637.50;1357128;95;21311;-83
2023/11/12 10:52:14;;;;;;;8.90;4.30;;;;;;;8.00;100.00;99647.58;1366992;91;22343;-82
2023/11/12 10:54:45;;;;;;;7.37;5.00;;;;;;;8.03;100.00;99640.69;1361076;90;21245;-82
2023/11/12 10:57:13;;;;;;;3.77;2.97;;;;;;;8.08;100.00;99642.85;1518576;90;21452;-81
2023/11/12 10:59:44;;;;;;;7.03;3.53;;;;;;;8.12;100.00;99642.91;1365076;91;21385;-81
2023/11/12 11:02:21;;;;;;;2.67;2.10;;;;;;;8.05;100.00;99653.20;1378058;91;22345;-81
2023/11/12 11:04:48;;;;;;;3.37;2.70;;;;;;;8.01;100.00;99649.72;1434633;91;22382;-80
2023/11/12 11:07:16;;;;;;;5.27;2.93;;;;;;;7.98;100.00;99649.52;1431527;90;21363;-80
2023/11/12 11:09:43;;;;;;;4.70;2.27;;;;;;;7.96;100.00;99656.74;1366296;90;21411;-81
2023/11/12 11:12:11;;;;;;;5.47;3.83;;;;;;;7.92;100.00;99658.03;1514263;91;21304;-82
2023/11/12 11:14:37;;;;;;;3.63;2.93;;;;;;;7.93;100.00;99660.17;1360472;91;21267;-82
2023/11/12 11:17:05;;;;;;;3.90;2.53;;;;;;;7.95;100.00;99656.91;1420521;91;21377;-82
2023/11/12 11:19:50;;;;;;;12.73;10.73;;;;;;;7.95;100.00;99660.37;1434978;90;21562;-82
2023/11/12 11:22:35;;;;;;;7.83;4.20;;;;;;;7.95;100.00;99663.00;1433900;90;21465;-80
2023/11/12 11:25:29;;;;;;;11.70;6.47;;;;;;;7.92;100.00;99667.25;1426078;91;21525;-81
2023/11/12 11:28:19;;;;;;;7.33;5.60;;;;;;;7.93;100.00;99671.53;1358330;90;21406;-83
2023/11/12 11:31:13;;;;;;;6.92;5.10;;;;;;;7.97;100.00;99674.23;1461353;92;21506;-80
2023/11/12 11:33:47;;;;;;;9.53;5.60;;;;;;;8.02;100.00;99677.22;1496731;91;21342;-79
2023/11/12 11:36:16;;;;;;;8.07;3.97;;;;;;;8.07;100.00;99670.20;1365918;90;21252;-80